createdAt,value
2022-11-17T00:01:59.217Z,12.30
2022-11-17T00:04:30.864Z,11.10
2022-11-17T00:07:03.248Z,11.20
2022-11-17T00:09:34.788Z,12.40
2022-11-17T00:12:26.150Z,12.40
2022-11-17T00:15:00.248Z,11.10
2022-11-17T00:17:32.318Z,13.20
2022-11-17T00:20:21.337Z,14.00
2022-11-17T00:22:53.745Z,12.00
2022-11-17T00:25:25.356Z,11.10
2022-11-17T00:27:56.833Z,10.00
2022-11-17T00:30:45.459Z,11.00
2022-11-17T00:33:34.729Z,10.10
2022-11-17T00:36:07.165Z,9.30
2022-11-17T00:38:38.549Z,7.50
2022-11-17T00:41:10.065Z,9.90
2022-11-17T00:43:41.464Z,8.20
2022-11-17T00:46:13.223Z,9.00
2022-11-17T00:48:44.676Z,6.90
2022-11-17T00:51:16.112Z,6.90
2022-11-17T00:53:47.620Z,7.80
2022-11-17T00:56:19.181Z,7.30
2022-11-17T00:58:50.767Z,6.60
2022-11-17T01:01:22.389Z,5.90
2022-11-17T01:04:03.517Z,7.60
2022-11-17T01:06:37.586Z,6.60
2022-11-17T01:09:13.205Z,6.70
2022-11-17T01:11:45.554Z,6.40
2022-11-17T01:14:19.396Z,5.70
2022-11-17T01:16:50.951Z,6.00
2022-11-17T01:19:30.809Z,7.00
2022-11-17T01:22:13.928Z,6.40
2022-11-17T01:24:45.437Z,9.00
2022-11-17T01:27:17.075Z,7.60
2022-11-17T01:29:48.625Z,5.30
2022-11-17T01:32:20.025Z,6.30
2022-11-17T01:34:51.880Z,5.40
2022-11-17T01:37:23.379Z,4.80
2022-11-17T01:39:54.906Z,5.80
2022-11-17T01:42:28.483Z,6.80
2022-11-17T01:45:03.155Z,7.20
2022-11-17T01:47:40.022Z,7.00
2022-11-17T01:50:20.334Z,6.20
2022-11-17T01:52:53.312Z,5.90
2022-11-17T01:55:27.045Z,6.30
2022-11-17T01:58:04.446Z,6.00
2022-11-17T02:00:36.135Z,6.00
2022-11-17T02:03:11.632Z,5.10
2022-11-17T02:05:50.421Z,4.70
2022-11-17T02:08:24.609Z,6.30
2022-11-17T02:10:56.966Z,5.70
2022-11-17T02:13:29.472Z,6.10
2022-11-17T02:16:00.912Z,6.50
2022-11-17T02:18:32.492Z,6.40
2022-11-17T02:21:25.783Z,4.60
2022-11-17T02:24:19.738Z,5.70
2022-11-17T02:27:26.586Z,5.10
2022-11-17T02:30:04.171Z,7.60
2022-11-17T02:32:45.594Z,6.40
2022-11-17T02:35:26.300Z,4.60
2022-11-17T02:38:08.066Z,5.60
2022-11-17T02:40:45.824Z,5.70
2022-11-17T02:43:39.121Z,5.30
2022-11-17T02:46:13.605Z,4.80
2022-11-17T02:48:50.292Z,5.70
2022-11-17T02:51:24.490Z,4.90
2022-11-17T02:54:00.544Z,5.80
2022-11-17T02:56:32.150Z,4.80
2022-11-17T02:59:06.273Z,4.00
2022-11-17T03:01:58.327Z,4.30
2022-11-17T03:04:40.548Z,4.40
2022-11-17T03:07:29.800Z,6.00
2022-11-17T03:10:10.484Z,4.50
2022-11-17T03:12:49.513Z,4.30
2022-11-17T03:15:29.017Z,6.40
2022-11-17T03:18:12.324Z,9.10
2022-11-17T03:20:51.554Z,5.60
2022-11-17T03:23:29.685Z,5.50
2022-11-17T03:26:03.094Z,5.90
2022-11-17T03:28:36.222Z,5.60
2022-11-17T03:31:11.559Z,5.00
2022-11-17T03:33:46.052Z,5.80
2022-11-17T03:36:21.892Z,5.00
2022-11-17T03:38:58.035Z,5.40
2022-11-17T03:41:34.823Z,5.40
2022-11-17T03:44:08.552Z,4.90
2022-11-17T03:46:40.791Z,5.20
2022-11-17T03:49:19.647Z,6.20
2022-11-17T03:51:51.140Z,5.40
2022-11-17T03:54:22.600Z,5.60
2022-11-17T03:56:58.881Z,5.90
2022-11-17T03:59:35.596Z,5.10
2022-11-17T04:02:08.339Z,5.40
2022-11-17T04:04:53.531Z,6.10
2022-11-17T04:09:55.132Z,6.70
2022-11-17T04:12:43.752Z,6.70
2022-11-17T04:15:33.008Z,6.00
2022-11-17T04:18:05.802Z,5.20
2022-11-17T04:20:37.634Z,5.80
2022-11-17T04:23:11.716Z,6.60
2022-11-17T04:26:11.446Z,7.00
2022-11-17T04:28:56.751Z,5.90
2022-11-17T04:31:42.016Z,5.60
2022-11-17T04:34:24.782Z,5.80
2022-11-17T04:37:19.662Z,8.20
2022-11-17T04:39:51.079Z,5.90
2022-11-17T04:42:22.528Z,8.80
2022-11-17T04:44:54.069Z,8.10
2022-11-17T04:47:25.446Z,5.20
2022-11-17T04:49:56.894Z,5.30
2022-11-17T04:52:29.952Z,6.00
2022-11-17T04:55:01.566Z,6.50
2022-11-17T04:57:32.983Z,5.70
2022-11-17T05:00:05.110Z,5.50
2022-11-17T05:02:36.897Z,7.70
2022-11-17T05:05:09.753Z,8.70
2022-11-17T05:07:41.306Z,4.90
2022-11-17T05:10:15.377Z,5.90
2022-11-17T05:13:18.656Z,6.40
2022-11-17T05:16:09.197Z,5.80
2022-11-17T05:18:41.054Z,6.40
2022-11-17T05:21:13.427Z,5.80
2022-11-17T05:23:56.871Z,6.00
2022-11-17T05:26:30.171Z,6.90
2022-11-17T05:29:03.675Z,5.60
2022-11-17T05:31:35.832Z,5.60
2022-11-17T05:34:09.366Z,5.40
2022-11-17T05:36:41.500Z,5.70
2022-11-17T05:39:14.265Z,5.40
2022-11-17T05:41:45.631Z,7.90
2022-11-17T05:44:17.176Z,5.40
2022-11-17T05:46:48.567Z,6.00
2022-11-17T05:49:20.120Z,6.10
2022-11-17T05:51:53.099Z,5.40
2022-11-17T05:54:24.888Z,6.40
2022-11-17T05:57:02.062Z,6.40
2022-11-17T05:59:38.373Z,5.80
2022-11-17T06:02:15.472Z,7.20
2022-11-17T06:04:47.849Z,5.80
2022-11-17T06:07:19.929Z,7.20
2022-11-17T06:09:52.603Z,7.20
2022-11-17T06:12:24.012Z,5.60
2022-11-17T06:14:55.482Z,6.60
2022-11-17T06:17:33.232Z,6.20
2022-11-17T06:20:07.332Z,6.30
2022-11-17T06:22:41.796Z,8.30
2022-11-17T06:25:16.062Z,6.00
2022-11-17T06:27:48.947Z,6.00
2022-11-17T06:30:22.112Z,5.50
2022-11-17T06:32:56.771Z,6.10
2022-11-17T06:35:33.564Z,6.90
2022-11-17T06:38:05.703Z,5.60
2022-11-17T06:40:37.328Z,6.80
2022-11-17T06:43:10.082Z,6.10
2022-11-17T06:45:44.019Z,7.90
2022-11-17T06:48:18.169Z,6.70
2022-11-17T06:50:51.763Z,7.80
2022-11-17T06:53:26.846Z,6.00
2022-11-17T06:56:09.622Z,5.10
2022-11-17T06:58:44.672Z,5.70
2022-11-17T07:01:17.486Z,6.40
2022-11-17T07:03:49.531Z,8.20
2022-11-17T07:06:35.062Z,6.80
2022-11-17T07:09:06.809Z,7.90
2022-11-17T07:11:39.241Z,7.90
2022-11-17T07:14:11.535Z,16.80
2022-11-17T07:16:44.877Z,8.20
2022-11-17T07:19:16.438Z,6.20
2022-11-17T07:21:48.037Z,7.10
2022-11-17T07:24:19.569Z,5.50
2022-11-17T07:26:51.185Z,16.80
2022-11-17T07:29:22.646Z,17.00
2022-11-17T07:31:54.208Z,14.90
2022-11-17T07:34:25.748Z,19.80
2022-11-17T07:36:57.505Z,12.00
2022-11-17T07:39:29.439Z,6.90
2022-11-17T07:42:01.045Z,9.90
2022-11-17T07:44:34.729Z,7.50
2022-11-17T07:47:06.286Z,5.60
2022-11-17T07:49:38.042Z,6.10
2022-11-17T07:52:09.690Z,5.80
2022-11-17T07:54:41.307Z,5.60
2022-11-17T07:57:12.855Z,5.10
2022-11-17T07:59:48.157Z,6.00
2022-11-17T08:02:20.072Z,6.20
2022-11-17T08:04:51.749Z,4.90
2022-11-17T08:07:23.254Z,6.30
2022-11-17T08:09:54.804Z,4.10
2022-11-17T08:12:26.390Z,4.30
2022-11-17T08:14:59.181Z,4.60
2022-11-17T08:17:32.458Z,3.80
2022-11-17T08:20:04.640Z,4.40
2022-11-17T08:22:36.252Z,3.90
2022-11-17T08:25:08.732Z,4.30
2022-11-17T08:27:40.237Z,5.70
2022-11-17T08:30:13.081Z,4.80
2022-11-17T08:32:51.887Z,5.10
2022-11-17T08:35:25.710Z,4.10
2022-11-17T08:37:57.486Z,5.50
2022-11-17T08:40:29.008Z,6.80
2022-11-17T08:43:02.592Z,5.90
2022-11-17T08:45:34.025Z,4.50
2022-11-17T08:48:07.794Z,5.40
2022-11-17T08:50:39.254Z,7.30
2022-11-17T08:53:16.484Z,4.90
2022-11-17T08:55:48.062Z,5.60
2022-11-17T08:58:20.291Z,4.20
2022-11-17T09:00:52.058Z,4.00
2022-11-17T09:03:24.147Z,4.90
2022-11-17T09:05:55.824Z,5.30
2022-11-17T09:08:45.022Z,4.10
2022-11-17T09:11:17.683Z,3.70
2022-11-17T09:13:49.213Z,4.60
2022-11-17T09:16:21.404Z,4.40
2022-11-17T09:18:58.676Z,5.40
2022-11-17T09:21:31.955Z,5.50
2022-11-17T09:24:03.561Z,5.50
2022-11-17T09:26:35.418Z,6.00
2022-11-17T09:29:07.404Z,4.80
2022-11-17T09:31:39.393Z,5.50
2022-11-17T09:34:10.909Z,4.70
2022-11-17T09:36:43.210Z,5.80
2022-11-17T09:39:14.707Z,7.50
2022-11-17T09:41:49.002Z,5.20
2022-11-17T09:44:30.172Z,7.00
2022-11-17T09:47:09.527Z,8.40
2022-11-17T09:49:58.073Z,6.50
2022-11-17T09:52:34.832Z,5.80
2022-11-17T09:55:17.823Z,6.40
2022-11-17T09:57:54.006Z,6.30
2022-11-17T10:00:26.985Z,7.90
2022-11-17T10:02:58.555Z,6.70
2022-11-17T10:05:33.138Z,6.70
2022-11-17T10:08:08.593Z,5.80
2022-11-17T10:10:45.602Z,6.00
2022-11-17T10:13:25.428Z,7.30
2022-11-17T10:15:59.975Z,6.00
2022-11-17T10:18:37.906Z,7.10
2022-11-17T10:21:10.393Z,8.30
2022-11-17T10:23:47.340Z,5.40
2022-11-17T10:26:19.678Z,8.40
2022-11-17T10:29:08.813Z,10.90
2022-11-17T10:31:47.994Z,7.60
2022-11-17T10:34:40.636Z,7.80
2022-11-17T10:37:31.846Z,8.10
2022-11-17T10:40:25.414Z,10.70
2022-11-17T10:43:25.793Z,7.70
2022-11-17T10:46:00.097Z,6.80
2022-11-17T10:48:33.986Z,9.40
2022-11-17T10:51:09.521Z,9.10
2022-11-17T10:53:46.050Z,6.40
2022-11-17T10:56:21.975Z,8.50
2022-11-17T10:59:03.754Z,9.70
2022-11-17T11:01:38.072Z,7.70
2022-11-17T11:04:28.918Z,8.40
2022-11-17T11:07:13.540Z,8.00
2022-11-17T11:09:52.205Z,8.40
2022-11-17T11:12:34.581Z,8.10
2022-11-17T11:15:09.433Z,6.60
2022-11-17T11:17:44.956Z,8.70
2022-11-17T11:20:19.915Z,7.60
2022-11-17T11:22:58.953Z,7.70
2022-11-17T11:25:42.910Z,6.50
2022-11-17T11:28:33.141Z,11.10
2022-11-17T11:31:15.013Z,8.70
2022-11-17T11:33:55.225Z,6.90
2022-11-17T11:36:37.923Z,7.60
2022-11-17T11:39:21.644Z,10.20
2022-11-17T11:42:15.617Z,6.90
2022-11-17T11:45:03.989Z,5.30
2022-11-17T11:47:54.255Z,8.30
2022-11-17T11:50:29.954Z,9.90
2022-11-17T11:53:09.020Z,16.50
2022-11-17T11:55:42.210Z,7.90
2022-11-17T11:58:21.702Z,9.60
2022-11-17T12:00:57.335Z,8.80
2022-11-17T12:03:42.208Z,11.70
2022-11-17T12:06:38.225Z,9.30
2022-11-17T12:09:26.458Z,10.40
2022-11-17T12:12:04.908Z,10.10
2022-11-17T12:14:37.878Z,27.20
2022-11-17T12:17:23.732Z,16.10
2022-11-17T12:19:59.912Z,14.30
2022-11-17T12:23:00.447Z,22.00
2022-11-17T12:25:36.241Z,10.20
2022-11-17T12:28:33.010Z,9.60
2022-11-17T12:31:10.133Z,9.20
2022-11-17T12:34:21.707Z,14.60
2022-11-17T12:37:18.594Z,15.30
2022-11-17T12:40:08.461Z,13.00
2022-11-17T12:43:00.200Z,11.30
2022-11-17T12:45:36.285Z,11.70
2022-11-17T12:48:32.842Z,9.40
2022-11-17T12:51:10.507Z,11.90
2022-11-17T12:54:04.707Z,12.70
2022-11-17T12:56:45.522Z,15.20
2022-11-17T12:59:42.553Z,11.20
2022-11-17T13:02:31.059Z,14.30
2022-11-17T13:05:08.094Z,10.80
2022-11-17T13:07:39.719Z,12.60
2022-11-17T13:10:29.634Z,10.30
2022-11-17T13:13:20.954Z,10.90
2022-11-17T13:15:58.955Z,11.60
2022-11-17T13:18:37.678Z,11.00
2022-11-17T13:21:30.348Z,12.60
2022-11-17T13:24:02.864Z,13.00
2022-11-17T13:26:38.626Z,11.10
2022-11-17T13:29:13.749Z,10.10
2022-11-17T13:31:45.267Z,12.20
2022-11-17T13:34:21.484Z,11.60
2022-11-17T13:37:01.283Z,11.10
2022-11-17T13:39:32.664Z,11.30
2022-11-17T13:42:08.856Z,12.30
2022-11-17T13:44:40.797Z,14.30
2022-11-17T13:47:42.033Z,13.90
2022-11-17T13:50:38.733Z,15.30
2022-11-17T13:53:26.265Z,11.20
2022-11-17T13:55:58.115Z,11.90
2022-11-17T13:58:40.476Z,11.60
2022-11-17T14:01:15.914Z,12.90
2022-11-17T14:03:47.364Z,13.30
2022-11-17T14:06:20.007Z,16.00
2022-11-17T14:11:53.926Z,12.90
2022-11-17T14:14:34.430Z,15.40
2022-11-17T14:17:19.446Z,14.10
2022-11-17T14:19:51.846Z,16.00
2022-11-17T14:22:31.822Z,11.90
2022-11-17T14:25:10.041Z,12.60
2022-11-17T14:27:42.655Z,12.50
2022-11-17T14:30:16.672Z,13.40
2022-11-17T14:32:49.763Z,11.50
2022-11-17T14:35:21.388Z,10.80
2022-11-17T14:37:53.518Z,8.90
2022-11-17T14:40:25.446Z,14.20
2022-11-17T14:43:02.870Z,20.30
2022-11-17T14:45:38.876Z,17.60
2022-11-17T14:48:17.585Z,14.80
2022-11-17T14:50:56.777Z,10.90
2022-11-17T14:53:28.537Z,14.00
2022-11-17T14:56:10.623Z,12.30
2022-11-17T14:58:42.187Z,12.20
2022-11-17T15:01:17.211Z,11.20
2022-11-17T15:03:49.098Z,13.00
2022-11-17T15:06:21.629Z,10.60
2022-11-17T15:08:56.643Z,11.30
2022-11-17T15:14:02.552Z,12.10
2022-11-17T15:16:35.039Z,10.40
2022-11-17T15:19:07.703Z,22.30
2022-11-17T15:21:39.223Z,24.60
2022-11-17T15:24:11.544Z,19.40
2022-11-17T15:26:44.095Z,13.90
2022-11-17T15:29:21.054Z,16.40
2022-11-17T15:31:54.250Z,15.10
2022-11-17T15:34:36.075Z,16.50
2022-11-17T15:37:10.899Z,16.20
2022-11-17T15:42:12.369Z,13.70
2022-11-17T15:44:44.399Z,12.70
2022-11-17T15:47:15.832Z,16.30
2022-11-17T15:49:47.470Z,13.60
2022-11-17T15:52:30.096Z,15.60
2022-11-17T15:55:12.514Z,17.10
2022-11-17T15:57:43.905Z,15.60
2022-11-17T16:00:17.974Z,17.10
2022-11-17T16:02:58.479Z,14.40
2022-11-17T16:05:31.491Z,11.60
2022-11-17T16:08:03.124Z,13.90
2022-11-17T16:10:34.565Z,16.30
2022-11-17T16:13:06.063Z,15.90
2022-11-17T16:15:37.541Z,16.70
2022-11-17T16:18:09.144Z,18.50
2022-11-17T16:20:40.778Z,14.00
2022-11-17T16:23:12.271Z,15.00
2022-11-17T16:25:45.851Z,15.90
2022-11-17T16:28:18.452Z,17.90
2022-11-17T16:30:52.726Z,12.30
2022-11-17T16:33:24.310Z,15.40
2022-11-17T16:35:55.817Z,18.60
2022-11-17T16:38:27.593Z,22.20
2022-11-17T16:41:02.928Z,18.80
2022-11-17T16:43:36.315Z,21.90
2022-11-17T16:46:20.969Z,14.80
2022-11-17T16:48:53.345Z,16.20
2022-11-17T16:51:52.048Z,14.70
2022-11-17T16:54:39.360Z,11.70
2022-11-17T16:57:29.093Z,9.80
2022-11-17T17:03:40.203Z,11.90
2022-11-17T17:06:38.141Z,14.20
2022-11-17T17:09:45.895Z,12.60
2022-11-17T17:12:34.313Z,13.10
2022-11-17T17:15:18.389Z,9.80
2022-11-17T17:21:22.807Z,8.00
2022-11-17T17:24:06.695Z,8.50
2022-11-17T17:27:09.139Z,9.00
2022-11-17T17:29:50.168Z,11.50
2022-11-17T17:32:53.849Z,11.10
2022-11-17T17:35:57.040Z,10.10
2022-11-17T17:38:38.314Z,11.40
2022-11-17T17:41:22.500Z,10.10
2022-11-17T17:44:00.531Z,10.30
2022-11-17T17:46:52.516Z,9.70
2022-11-17T17:49:31.642Z,9.20
2022-11-17T17:55:00.247Z,9.40
2022-11-17T17:57:45.425Z,12.20
2022-11-17T18:03:25.971Z,13.30
2022-11-17T18:06:26.485Z,11.80
2022-11-17T18:09:20.972Z,14.00
2022-11-17T18:12:03.736Z,13.60
2022-11-17T18:15:02.975Z,13.80
2022-11-17T18:17:57.732Z,14.80
2022-11-17T18:20:43.514Z,13.30
2022-11-17T18:23:48.496Z,13.30
2022-11-17T18:26:22.106Z,12.90
2022-11-17T18:28:56.622Z,17.60
2022-11-17T18:31:30.027Z,14.20
2022-11-17T18:34:03.482Z,13.00
2022-11-17T18:36:53.487Z,16.40
2022-11-17T18:39:25.787Z,16.10
2022-11-17T18:41:58.577Z,15.50
2022-11-17T18:44:58.060Z,16.30
2022-11-17T18:47:31.757Z,20.00
2022-11-17T18:50:25.248Z,20.30
2022-11-17T18:53:27.627Z,18.20
2022-11-17T18:56:38.340Z,32.40
2022-11-17T18:59:29.839Z,27.40
2022-11-17T19:02:20.477Z,21.00
2022-11-17T19:04:55.348Z,22.30
2022-11-17T19:07:46.741Z,21.30
2022-11-17T19:10:26.266Z,32.30
2022-11-17T19:13:39.171Z,36.40
2022-11-17T19:16:17.220Z,36.90
2022-11-17T19:18:54.347Z,27.70
2022-11-17T19:21:37.301Z,23.40
2022-11-17T19:24:19.109Z,20.20
2022-11-17T19:26:52.909Z,19.10
2022-11-17T19:29:25.131Z,20.70
2022-11-17T19:32:01.875Z,18.60
2022-11-17T19:34:38.421Z,15.30
2022-11-17T19:37:18.122Z,17.50
2022-11-17T19:39:50.546Z,20.30
2022-11-17T19:42:33.070Z,19.60
2022-11-17T19:45:15.143Z,20.10
2022-11-17T19:48:10.907Z,20.30
2022-11-17T19:51:19.489Z,18.70
2022-11-17T19:53:57.623Z,17.70
2022-11-17T19:56:30.434Z,18.10
2022-11-17T19:59:03.947Z,17.70
2022-11-17T20:02:05.069Z,14.10
2022-11-17T20:04:39.613Z,12.30
2022-11-17T20:07:18.096Z,20.70
2022-11-17T20:09:52.572Z,20.10
2022-11-17T20:12:29.035Z,12.60
2022-11-17T20:15:36.196Z,14.80
2022-11-17T20:18:12.435Z,14.40
2022-11-17T20:20:45.025Z,16.40
2022-11-17T20:23:23.905Z,14.60
2022-11-17T20:26:03.856Z,14.40
2022-11-17T20:28:44.452Z,12.40
2022-11-17T20:31:49.994Z,11.30
2022-11-17T20:34:28.655Z,12.10
2022-11-17T20:37:10.393Z,13.30
2022-11-17T20:40:03.479Z,19.40
2022-11-17T20:42:46.779Z,22.00
2022-11-17T20:45:26.042Z,20.20
2022-11-17T20:47:59.348Z,17.60
2022-11-17T20:50:59.187Z,13.30
2022-11-17T20:53:42.490Z,13.60
2022-11-17T20:56:23.090Z,14.50
2022-11-17T20:58:55.027Z,21.50
2022-11-17T21:01:32.040Z,15.20
2022-11-17T21:04:04.030Z,16.90
2022-11-17T21:06:37.985Z,12.90
2022-11-17T21:09:10.026Z,16.00
2022-11-17T21:11:59.673Z,16.30
2022-11-17T21:14:32.078Z,16.30
2022-11-17T21:17:04.225Z,12.50
2022-11-17T21:19:39.025Z,13.90
2022-11-17T21:24:41.652Z,10.90
2022-11-17T21:27:16.005Z,14.10
2022-11-17T21:29:48.292Z,19.60
2022-11-17T21:32:20.501Z,19.10
2022-11-17T21:34:53.414Z,23.90
2022-11-17T21:37:28.213Z,16.70
2022-11-17T21:42:44.684Z,15.80
2022-11-17T21:45:16.797Z,14.40
2022-11-17T21:47:48.897Z,16.50
2022-11-17T21:50:20.953Z,16.70
2022-11-17T21:52:53.411Z,15.60
2022-11-17T21:55:29.164Z,14.70
2022-11-17T21:58:03.139Z,15.40
2022-11-17T22:00:34.757Z,16.50
2022-11-17T22:03:06.526Z,16.10
2022-11-17T22:05:38.167Z,19.20
2022-11-17T22:08:11.649Z,21.60
2022-11-17T22:10:43.676Z,17.20
2022-11-17T22:13:18.098Z,16.00
2022-11-17T22:16:07.679Z,12.40
2022-11-17T22:18:51.231Z,13.90
2022-11-17T22:21:47.049Z,14.60
2022-11-17T22:24:49.914Z,12.00
2022-11-17T22:27:23.990Z,12.20
2022-11-17T22:30:33.076Z,14.60
2022-11-17T22:33:26.570Z,14.60
2022-11-17T22:36:29.746Z,15.50
2022-11-17T22:39:02.392Z,15.10
2022-11-17T22:41:49.346Z,11.70
2022-11-17T22:44:41.851Z,12.80
2022-11-17T22:47:13.622Z,14.30
2022-11-17T22:49:46.220Z,13.90
2022-11-17T22:52:19.401Z,14.40
2022-11-17T22:54:51.402Z,13.00
2022-11-17T22:57:22.937Z,12.70
2022-11-17T22:59:54.476Z,15.90
2022-11-17T23:02:27.477Z,15.70
2022-11-17T23:04:59.363Z,17.20
2022-11-17T23:07:31.288Z,14.10
2022-11-17T23:10:04.298Z,16.70
2022-11-17T23:12:37.360Z,14.40
2022-11-17T23:15:10.586Z,17.30
2022-11-17T23:17:43.055Z,15.00
2022-11-17T23:20:16.172Z,16.20
2022-11-17T23:22:47.870Z,15.10
2022-11-17T23:25:20.267Z,13.70
2022-11-17T23:27:52.160Z,14.50
2022-11-17T23:30:23.665Z,13.70
2022-11-17T23:32:58.428Z,17.80
2022-11-17T23:38:01.297Z,16.20
2022-11-17T23:40:33.359Z,15.20
2022-11-17T23:43:08.214Z,16.50
2022-11-17T23:48:11.474Z,14.50
2022-11-17T23:50:43.151Z,18.20
2022-11-17T23:53:15.442Z,15.60
2022-11-17T23:55:56.234Z,15.40
2022-11-17T23:58:29.191Z,19.20
